sensor_id;sensor_type;location;lat;lon;timestamp;P1;durP1;ratioP1;P2;durP2;ratioP2
7823;SDS011;3957;48.61947800;9.05303100;2022-07-06T00:01:13;2.00;;;1.70;;
7823;SDS011;3957;48.61947800;9.05303100;2022-07-06T00:02:34;2.65;;;2.20;;
7823;SDS011;3957;48.61947800;9.05303100;2022-07-06T00:03:54;2.13;;;1.92;;
7823;SDS011;3957;48.61947800;9.05303100;2022-07-06T00:05:15;3.20;;;2.08;;
7823;SDS011;3957;48.61947800;9.05303100;2022-07-06T00:06:36;2.50;;;1.90;;
7823;SDS011;3957;48.61947800;9.05303100;2022-07-06T00:07:57;3.83;;;2.00;;
7823;SDS011;3957;48.61947800;9.05303100;2022-07-06T00:09:18;3.40;;;1.90;;
7823;SDS011;3957;48.61947800;9.05303100;2022-07-06T00:10:39;3.83;;;2.10;;
7823;SDS011;3957;48.61947800;9.05303100;2022-07-06T00:12:00;2.50;;;1.95;;
7823;SDS011;3957;48.61947800;9.05303100;2022-07-06T00:13:21;2.15;;;1.83;;
7823;SDS011;3957;48.61947800;9.05303100;2022-07-06T00:14:41;4.05;;;1.75;;
7823;SDS011;3957;48.61947800;9.05303100;2022-07-06T00:16:02;1.70;;;1.60;;
7823;SDS011;3957;48.61947800;9.05303100;2022-07-06T00:17:23;3.78;;;1.88;;
7823;SDS011;3957;48.61947800;9.05303100;2022-07-06T00:18:44;2.10;;;1.80;;
7823;SDS011;3957;48.61947800;9.05303100;2022-07-06T00:20:06;3.78;;;2.10;;
7823;SDS011;3957;48.61947800;9.05303100;2022-07-06T00:21:27;2.60;;;1.98;;
7823;SDS011;3957;48.61947800;9.05303100;2022-07-06T00:22:47;4.10;;;1.50;;
7823;SDS011;3957;48.61947800;9.05303100;2022-07-06T00:24:08;2.35;;;2.03;;
7823;SDS011;3957;48.61947800;9.05303100;2022-07-06T00:25:29;2.00;;;1.80;;
7823;SDS011;3957;48.61947800;9.05303100;2022-07-06T00:26:50;2.20;;;1.90;;
7823;SDS011;3957;48.61947800;9.05303100;2022-07-06T00:28:10;3.22;;;2.10;;
7823;SDS011;3957;48.61947800;9.05303100;2022-07-06T00:29:31;2.40;;;2.03;;
7823;SDS011;3957;48.61947800;9.05303100;2022-07-06T00:30:52;3.15;;;1.83;;
7823;SDS011;3957;48.61947800;9.05303100;2022-07-06T00:32:13;2.00;;;1.80;;
7823;SDS011;3957;48.61947800;9.05303100;2022-07-06T00:33:36;2.53;;;1.90;;
7823;SDS011;3957;48.61947800;9.05303100;2022-07-06T00:34:57;2.20;;;1.90;;
7823;SDS011;3957;48.61947800;9.05303100;2022-07-06T00:36:17;2.07;;;1.80;;
7823;SDS011;3957;48.61947800;9.05303100;2022-07-06T00:37:38;2.50;;;1.80;;
7823;SDS011;3957;48.61947800;9.05303100;2022-07-06T00:38:59;2.22;;;1.90;;
7823;SDS011;3957;48.61947800;9.05303100;2022-07-06T00:40:20;1.80;;;1.70;;
7823;SDS011;3957;48.61947800;9.05303100;2022-07-06T00:41:41;2.10;;;1.75;;
7823;SDS011;3957;48.61947800;9.05303100;2022-07-06T00:43:02;2.17;;;1.70;;
7823;SDS011;3957;48.61947800;9.05303100;2022-07-06T00:44:23;1.95;;;1.73;;
7823;SDS011;3957;48.61947800;9.05303100;2022-07-06T00:45:44;3.50;;;1.88;;
7823;SDS011;3957;48.61947800;9.05303100;2022-07-06T00:47:05;1.75;;;1.65;;
7823;SDS011;3957;48.61947800;9.05303100;2022-07-06T00:48:28;2.00;;;1.63;;
7823;SDS011;3957;48.61947800;9.05303100;2022-07-06T00:49:48;2.08;;;1.83;;
7823;SDS011;3957;48.61947800;9.05303100;2022-07-06T00:51:28;3.08;;;1.80;;
7823;SDS011;3957;48.61947800;9.05303100;2022-07-06T00:52:51;2.10;;;1.90;;
7823;SDS011;3957;48.61947800;9.05303100;2022-07-06T00:54:14;3.75;;;1.90;;
7823;SDS011;3957;48.61947800;9.05303100;2022-07-06T00:55:36;1.80;;;1.63;;
7823;SDS011;3957;48.61947800;9.05303100;2022-07-06T00:57:00;2.70;;;1.55;;
7823;SDS011;3957;48.61947800;9.05303100;2022-07-06T00:58:21;2.30;;;1.70;;
7823;SDS011;3957;48.61947800;9.05303100;2022-07-06T00:59:42;2.20;;;1.60;;
7823;SDS011;3957;48.61947800;9.05303100;2022-07-06T01:01:03;2.72;;;1.85;;
7823;SDS011;3957;48.61947800;9.05303100;2022-07-06T01:02:24;2.80;;;1.70;;
7823;SDS011;3957;48.61947800;9.05303100;2022-07-06T01:03:45;2.97;;;1.50;;
7823;SDS011;3957;48.61947800;9.05303100;2022-07-06T01:05:06;2.30;;;1.75;;
7823;SDS011;3957;48.61947800;9.05303100;2022-07-06T01:06:28;1.77;;;1.65;;
7823;SDS011;3957;48.61947800;9.05303100;2022-07-06T01:07:50;1.83;;;1.60;;
7823;SDS011;3957;48.61947800;9.05303100;2022-07-06T01:09:13;2.60;;;1.60;;
7823;SDS011;3957;48.61947800;9.05303100;2022-07-06T01:10:34;3.10;;;1.70;;
7823;SDS011;3957;48.61947800;9.05303100;2022-07-06T01:11:54;2.10;;;1.80;;
7823;SDS011;3957;48.61947800;9.05303100;2022-07-06T01:13:15;2.47;;;1.73;;
7823;SDS011;3957;48.61947800;9.05303100;2022-07-06T01:14:36;2.00;;;1.80;;
7823;SDS011;3957;48.61947800;9.05303100;2022-07-06T01:15:57;3.87;;;1.87;;
7823;SDS011;3957;48.61947800;9.05303100;2022-07-06T01:17:18;2.20;;;1.75;;
7823;SDS011;3957;48.61947800;9.05303100;2022-07-06T01:18:39;3.00;;;1.85;;
7823;SDS011;3957;48.61947800;9.05303100;2022-07-06T01:21:37;2.97;;;2.03;;
7823;SDS011;3957;48.61947800;9.05303100;2022-07-06T01:22:58;2.70;;;2.10;;
7823;SDS011;3957;48.61947800;9.05303100;2022-07-06T01:24:20;1.90;;;1.73;;
7823;SDS011;3957;48.61947800;9.05303100;2022-07-06T01:25:41;3.90;;;2.00;;
7823;SDS011;3957;48.61947800;9.05303100;2022-07-06T01:27:05;2.05;;;1.85;;
7823;SDS011;3957;48.61947800;9.05303100;2022-07-06T01:28:27;2.28;;;1.85;;
7823;SDS011;3957;48.61947800;9.05303100;2022-07-06T01:29:48;3.80;;;1.83;;
7823;SDS011;3957;48.61947800;9.05303100;2022-07-06T01:33:06;3.53;;;2.00;;
7823;SDS011;3957;48.61947800;9.05303100;2022-07-06T01:34:27;1.88;;;1.70;;
7823;SDS011;3957;48.61947800;9.05303100;2022-07-06T01:35:48;2.80;;;1.98;;
7823;SDS011;3957;48.61947800;9.05303100;2022-07-06T01:37:10;2.10;;;1.95;;
7823;SDS011;3957;48.61947800;9.05303100;2022-07-06T01:38:31;2.38;;;1.77;;
7823;SDS011;3957;48.61947800;9.05303100;2022-07-06T01:39:52;4.55;;;2.10;;
7823;SDS011;3957;48.61947800;9.05303100;2022-07-06T01:41:13;3.00;;;1.95;;
7823;SDS011;3957;48.61947800;9.05303100;2022-07-06T01:42:34;2.22;;;1.85;;
7823;SDS011;3957;48.61947800;9.05303100;2022-07-06T01:43:55;2.42;;;1.67;;
7823;SDS011;3957;48.61947800;9.05303100;2022-07-06T01:45:16;3.17;;;1.90;;
7823;SDS011;3957;48.61947800;9.05303100;2022-07-06T01:46:37;2.47;;;1.70;;
7823;SDS011;3957;48.61947800;9.05303100;2022-07-06T01:47:58;2.28;;;1.90;;
7823;SDS011;3957;48.61947800;9.05303100;2022-07-06T01:49:19;2.20;;;2.00;;
7823;SDS011;3957;48.61947800;9.05303100;2022-07-06T01:50:40;2.47;;;1.95;;
7823;SDS011;3957;48.61947800;9.05303100;2022-07-06T01:52:01;3.00;;;1.60;;
7823;SDS011;3957;48.61947800;9.05303100;2022-07-06T01:53:22;3.53;;;1.85;;
7823;SDS011;3957;48.61947800;9.05303100;2022-07-06T01:54:44;3.70;;;1.90;;
7823;SDS011;3957;48.61947800;9.05303100;2022-07-06T01:56:05;3.00;;;1.98;;
7823;SDS011;3957;48.61947800;9.05303100;2022-07-06T01:57:26;2.35;;;1.98;;
7823;SDS011;3957;48.61947800;9.05303100;2022-07-06T01:58:48;2.53;;;1.80;;
7823;SDS011;3957;48.61947800;9.05303100;2022-07-06T02:00:09;4.57;;;1.97;;
7823;SDS011;3957;48.61947800;9.05303100;2022-07-06T02:01:40;2.53;;;1.75;;
7823;SDS011;3957;48.61947800;9.05303100;2022-07-06T02:03:01;2.40;;;1.80;;
7823;SDS011;3957;48.61947800;9.05303100;2022-07-06T02:04:22;1.98;;;1.80;;
7823;SDS011;3957;48.61947800;9.05303100;2022-07-06T02:05:43;3.38;;;1.85;;
7823;SDS011;3957;48.61947800;9.05303100;2022-07-06T02:07:03;4.85;;;1.55;;
7823;SDS011;3957;48.61947800;9.05303100;2022-07-06T02:08:24;2.17;;;1.90;;
7823;SDS011;3957;48.61947800;9.05303100;2022-07-06T02:09:45;3.40;;;1.90;;
7823;SDS011;3957;48.61947800;9.05303100;2022-07-06T02:11:06;2.73;;;1.70;;
7823;SDS011;3957;48.61947800;9.05303100;2022-07-06T02:12:30;3.33;;;1.77;;
7823;SDS011;3957;48.61947800;9.05303100;2022-07-06T02:13:51;2.67;;;1.85;;
7823;SDS011;3957;48.61947800;9.05303100;2022-07-06T02:15:11;3.08;;;1.85;;
7823;SDS011;3957;48.61947800;9.05303100;2022-07-06T02:16:34;2.40;;;1.90;;
7823;SDS011;3957;48.61947800;9.05303100;2022-07-06T02:17:55;2.83;;;1.88;;
7823;SDS011;3957;48.61947800;9.05303100;2022-07-06T02:19:18;2.45;;;1.85;;
7823;SDS011;3957;48.61947800;9.05303100;2022-07-06T02:20:39;2.25;;;1.90;;
7823;SDS011;3957;48.61947800;9.05303100;2022-07-06T02:22:00;3.22;;;1.92;;
7823;SDS011;3957;48.61947800;9.05303100;2022-07-06T02:23:21;2.30;;;1.90;;
7823;SDS011;3957;48.61947800;9.05303100;2022-07-06T02:24:43;2.70;;;1.88;;
7823;SDS011;3957;48.61947800;9.05303100;2022-07-06T02:26:04;3.80;;;1.90;;
7823;SDS011;3957;48.61947800;9.05303100;2022-07-06T02:27:26;1.88;;;1.75;;
7823;SDS011;3957;48.61947800;9.05303100;2022-07-06T02:28:46;2.08;;;1.88;;
7823;SDS011;3957;48.61947800;9.05303100;2022-07-06T02:30:08;3.42;;;1.73;;
7823;SDS011;3957;48.61947800;9.05303100;2022-07-06T02:31:30;2.28;;;1.73;;
7823;SDS011;3957;48.61947800;9.05303100;2022-07-06T02:32:51;3.50;;;2.38;;
7823;SDS011;3957;48.61947800;9.05303100;2022-07-06T02:34:12;2.85;;;2.15;;
7823;SDS011;3957;48.61947800;9.05303100;2022-07-06T02:35:33;2.92;;;1.90;;
7823;SDS011;3957;48.61947800;9.05303100;2022-07-06T02:36:54;1.90;;;1.73;;
7823;SDS011;3957;48.61947800;9.05303100;2022-07-06T02:38:16;1.90;;;1.70;;
7823;SDS011;3957;48.61947800;9.05303100;2022-07-06T02:39:36;2.88;;;2.10;;
7823;SDS011;3957;48.61947800;9.05303100;2022-07-06T02:40:58;3.40;;;2.30;;
7823;SDS011;3957;48.61947800;9.05303100;2022-07-06T02:42:19;3.27;;;1.90;;
7823;SDS011;3957;48.61947800;9.05303100;2022-07-06T02:43:40;4.95;;;1.95;;
7823;SDS011;3957;48.61947800;9.05303100;2022-07-06T02:45:01;3.03;;;2.35;;
7823;SDS011;3957;48.61947800;9.05303100;2022-07-06T02:46:23;2.92;;;1.92;;
7823;SDS011;3957;48.61947800;9.05303100;2022-07-06T02:47:45;2.03;;;1.70;;
7823;SDS011;3957;48.61947800;9.05303100;2022-07-06T02:49:05;3.47;;;1.85;;
7823;SDS011;3957;48.61947800;9.05303100;2022-07-06T02:50:26;3.08;;;1.70;;
7823;SDS011;3957;48.61947800;9.05303100;2022-07-06T02:51:49;3.10;;;2.00;;
7823;SDS011;3957;48.61947800;9.05303100;2022-07-06T02:53:10;2.20;;;1.95;;
7823;SDS011;3957;48.61947800;9.05303100;2022-07-06T02:54:31;2.28;;;1.95;;
7823;SDS011;3957;48.61947800;9.05303100;2022-07-06T02:55:52;2.53;;;1.95;;
7823;SDS011;3957;48.61947800;9.05303100;2022-07-06T02:57:13;3.80;;;1.92;;
7823;SDS011;3957;48.61947800;9.05303100;2022-07-06T02:58:34;2.75;;;2.10;;
7823;SDS011;3957;48.61947800;9.05303100;2022-07-06T02:59:55;2.95;;;2.17;;
7823;SDS011;3957;48.61947800;9.05303100;2022-07-06T03:01:16;3.80;;;1.90;;
7823;SDS011;3957;48.61947800;9.05303100;2022-07-06T03:02:37;3.42;;;2.20;;
7823;SDS011;3957;48.61947800;9.05303100;2022-07-06T03:03:58;2.30;;;2.03;;
7823;SDS011;3957;48.61947800;9.05303100;2022-07-06T03:05:19;3.05;;;2.00;;
7823;SDS011;3957;48.61947800;9.05303100;2022-07-06T03:06:40;4.05;;;2.20;;
7823;SDS011;3957;48.61947800;9.05303100;2022-07-06T03:08:01;5.00;;;2.40;;
7823;SDS011;3957;48.61947800;9.05303100;2022-07-06T03:09:24;2.95;;;2.25;;
7823;SDS011;3957;48.61947800;9.05303100;2022-07-06T03:10:44;2.95;;;2.20;;
7823;SDS011;3957;48.61947800;9.05303100;2022-07-06T03:12:06;2.47;;;2.28;;
7823;SDS011;3957;48.61947800;9.05303100;2022-07-06T03:13:29;2.83;;;2.05;;
7823;SDS011;3957;48.61947800;9.05303100;2022-07-06T03:14:50;2.78;;;2.13;;
7823;SDS011;3957;48.61947800;9.05303100;2022-07-06T03:16:10;2.33;;;2.13;;
7823;SDS011;3957;48.61947800;9.05303100;2022-07-06T03:17:31;2.63;;;2.13;;
7823;SDS011;3957;48.61947800;9.05303100;2022-07-06T03:18:52;3.15;;;2.28;;
7823;SDS011;3957;48.61947800;9.05303100;2022-07-06T03:20:13;3.63;;;2.60;;
7823;SDS011;3957;48.61947800;9.05303100;2022-07-06T03:21:35;3.85;;;2.20;;
7823;SDS011;3957;48.61947800;9.05303100;2022-07-06T03:22:57;3.60;;;2.20;;
7823;SDS011;3957;48.61947800;9.05303100;2022-07-06T03:24:17;3.75;;;2.38;;
7823;SDS011;3957;48.61947800;9.05303100;2022-07-06T03:25:38;3.58;;;2.33;;
7823;SDS011;3957;48.61947800;9.05303100;2022-07-06T03:27:00;3.53;;;2.50;;
7823;SDS011;3957;48.61947800;9.05303100;2022-07-06T03:28:21;2.30;;;2.10;;
7823;SDS011;3957;48.61947800;9.05303100;2022-07-06T03:29:42;2.95;;;2.42;;
7823;SDS011;3957;48.61947800;9.05303100;2022-07-06T03:31:02;2.80;;;2.45;;
7823;SDS011;3957;48.61947800;9.05303100;2022-07-06T03:32:23;2.60;;;2.40;;
7823;SDS011;3957;48.61947800;9.05303100;2022-07-06T03:33:45;3.00;;;2.30;;
7823;SDS011;3957;48.61947800;9.05303100;2022-07-06T03:35:06;3.08;;;2.28;;
7823;SDS011;3957;48.61947800;9.05303100;2022-07-06T03:36:28;3.67;;;2.72;;
7823;SDS011;3957;48.61947800;9.05303100;2022-07-06T03:37:48;4.28;;;2.28;;
7823;SDS011;3957;48.61947800;9.05303100;2022-07-06T03:39:10;4.32;;;2.25;;
7823;SDS011;3957;48.61947800;9.05303100;2022-07-06T03:40:32;4.93;;;2.70;;
7823;SDS011;3957;48.61947800;9.05303100;2022-07-06T03:41:54;2.60;;;2.40;;
7823;SDS011;3957;48.61947800;9.05303100;2022-07-06T03:43:16;3.25;;;2.90;;
7823;SDS011;3957;48.61947800;9.05303100;2022-07-06T03:44:37;3.97;;;2.50;;
7823;SDS011;3957;48.61947800;9.05303100;2022-07-06T03:45:58;3.47;;;2.60;;
7823;SDS011;3957;48.61947800;9.05303100;2022-07-06T03:47:19;3.13;;;2.40;;
7823;SDS011;3957;48.61947800;9.05303100;2022-07-06T03:48:40;3.17;;;2.72;;
7823;SDS011;3957;48.61947800;9.05303100;2022-07-06T03:50:02;4.70;;;2.92;;
7823;SDS011;3957;48.61947800;9.05303100;2022-07-06T03:51:23;5.45;;;3.00;;
7823;SDS011;3957;48.61947800;9.05303100;2022-07-06T03:52:44;4.45;;;2.65;;
7823;SDS011;3957;48.61947800;9.05303100;2022-07-06T03:54:05;3.85;;;2.95;;
7823;SDS011;3957;48.61947800;9.05303100;2022-07-06T03:55:26;4.50;;;2.83;;
7823;SDS011;3957;48.61947800;9.05303100;2022-07-06T03:56:52;4.20;;;2.92;;
7823;SDS011;3957;48.61947800;9.05303100;2022-07-06T03:58:13;3.88;;;2.80;;
7823;SDS011;3957;48.61947800;9.05303100;2022-07-06T03:59:35;3.40;;;2.60;;
7823;SDS011;3957;48.61947800;9.05303100;2022-07-06T04:00:56;3.33;;;2.70;;
7823;SDS011;3957;48.61947800;9.05303100;2022-07-06T04:02:16;2.97;;;2.65;;
7823;SDS011;3957;48.61947800;9.05303100;2022-07-06T04:03:37;3.83;;;2.90;;
7823;SDS011;3957;48.61947800;9.05303100;2022-07-06T04:04:59;5.07;;;3.38;;
7823;SDS011;3957;48.61947800;9.05303100;2022-07-06T04:06:20;3.17;;;2.88;;
7823;SDS011;3957;48.61947800;9.05303100;2022-07-06T04:07:41;4.18;;;2.83;;
7823;SDS011;3957;48.61947800;9.05303100;2022-07-06T04:09:02;6.25;;;2.80;;
7823;SDS011;3957;48.61947800;9.05303100;2022-07-06T04:10:23;4.57;;;2.80;;
7823;SDS011;3957;48.61947800;9.05303100;2022-07-06T04:11:45;5.60;;;3.13;;
7823;SDS011;3957;48.61947800;9.05303100;2022-07-06T04:13:05;6.33;;;2.90;;
7823;SDS011;3957;48.61947800;9.05303100;2022-07-06T04:14:26;5.28;;;3.00;;
7823;SDS011;3957;48.61947800;9.05303100;2022-07-06T04:15:48;2.90;;;2.60;;
7823;SDS011;3957;48.61947800;9.05303100;2022-07-06T04:17:09;6.85;;;3.10;;
7823;SDS011;3957;48.61947800;9.05303100;2022-07-06T04:18:49;3.20;;;2.50;;
7823;SDS011;3957;48.61947800;9.05303100;2022-07-06T04:20:10;3.15;;;2.60;;
7823;SDS011;3957;48.61947800;9.05303100;2022-07-06T04:21:30;3.63;;;2.67;;
7823;SDS011;3957;48.61947800;9.05303100;2022-07-06T04:22:52;4.82;;;2.95;;
7823;SDS011;3957;48.61947800;9.05303100;2022-07-06T04:24:15;3.03;;;2.72;;
7823;SDS011;3957;48.61947800;9.05303100;2022-07-06T04:25:37;3.50;;;2.65;;
7823;SDS011;3957;48.61947800;9.05303100;2022-07-06T04:26:57;4.03;;;2.80;;
7823;SDS011;3957;48.61947800;9.05303100;2022-07-06T04:28:18;3.63;;;2.70;;
7823;SDS011;3957;48.61947800;9.05303100;2022-07-06T04:29:39;3.55;;;2.72;;
7823;SDS011;3957;48.61947800;9.05303100;2022-07-06T04:31:00;4.22;;;2.72;;
7823;SDS011;3957;48.61947800;9.05303100;2022-07-06T04:32:21;3.70;;;2.90;;
7823;SDS011;3957;48.61947800;9.05303100;2022-07-06T04:33:42;4.47;;;2.50;;
7823;SDS011;3957;48.61947800;9.05303100;2022-07-06T04:35:04;2.92;;;2.40;;
7823;SDS011;3957;48.61947800;9.05303100;2022-07-06T04:36:25;4.78;;;2.97;;
7823;SDS011;3957;48.61947800;9.05303100;2022-07-06T04:37:47;2.35;;;2.15;;
7823;SDS011;3957;48.61947800;9.05303100;2022-07-06T04:39:09;4.10;;;2.67;;
7823;SDS011;3957;48.61947800;9.05303100;2022-07-06T04:40:31;2.75;;;2.47;;
7823;SDS011;3957;48.61947800;9.05303100;2022-07-06T04:41:55;4.00;;;2.58;;
7823;SDS011;3957;48.61947800;9.05303100;2022-07-06T04:43:17;4.68;;;2.72;;
7823;SDS011;3957;48.61947800;9.05303100;2022-07-06T04:44:38;4.82;;;2.70;;
7823;SDS011;3957;48.61947800;9.05303100;2022-07-06T04:45:59;3.05;;;2.60;;
7823;SDS011;3957;48.61947800;9.05303100;2022-07-06T04:47:22;4.35;;;2.80;;
7823;SDS011;3957;48.61947800;9.05303100;2022-07-06T04:48:43;6.53;;;2.70;;
7823;SDS011;3957;48.61947800;9.05303100;2022-07-06T04:50:07;4.95;;;2.80;;
7823;SDS011;3957;48.61947800;9.05303100;2022-07-06T04:51:28;5.55;;;3.13;;
7823;SDS011;3957;48.61947800;9.05303100;2022-07-06T04:52:49;2.65;;;2.05;;
7823;SDS011;3957;48.61947800;9.05303100;2022-07-06T04:54:10;4.25;;;2.72;;
7823;SDS011;3957;48.61947800;9.05303100;2022-07-06T04:55:30;4.85;;;2.20;;
7823;SDS011;3957;48.61947800;9.05303100;2022-07-06T04:56:52;3.50;;;2.35;;
7823;SDS011;3957;48.61947800;9.05303100;2022-07-06T04:58:12;3.25;;;2.63;;
7823;SDS011;3957;48.61947800;9.05303100;2022-07-06T04:59:35;3.20;;;2.60;;
7823;SDS011;3957;48.61947800;9.05303100;2022-07-06T05:00:56;2.92;;;2.42;;
7823;SDS011;3957;48.61947800;9.05303100;2022-07-06T05:02:18;4.18;;;2.53;;
7823;SDS011;3957;48.61947800;9.05303100;2022-07-06T05:03:40;3.22;;;2.20;;
7823;SDS011;3957;48.61947800;9.05303100;2022-07-06T05:05:02;4.13;;;2.65;;
7823;SDS011;3957;48.61947800;9.05303100;2022-07-06T05:06:23;3.57;;;2.40;;
7823;SDS011;3957;48.61947800;9.05303100;2022-07-06T05:07:44;2.40;;;2.20;;
7823;SDS011;3957;48.61947800;9.05303100;2022-07-06T05:09:05;3.45;;;2.47;;
7823;SDS011;3957;48.61947800;9.05303100;2022-07-06T05:10:27;3.80;;;2.10;;
7823;SDS011;3957;48.61947800;9.05303100;2022-07-06T05:11:50;2.03;;;1.75;;
7823;SDS011;3957;48.61947800;9.05303100;2022-07-06T05:13:12;4.00;;;2.55;;
7823;SDS011;3957;48.61947800;9.05303100;2022-07-06T05:14:33;2.47;;;1.75;;
7823;SDS011;3957;48.61947800;9.05303100;2022-07-06T05:15:54;2.80;;;2.10;;
7823;SDS011;3957;48.61947800;9.05303100;2022-07-06T05:17:15;4.53;;;2.28;;
7823;SDS011;3957;48.61947800;9.05303100;2022-07-06T05:18:36;2.15;;;1.95;;
7823;SDS011;3957;48.61947800;9.05303100;2022-07-06T05:19:58;3.70;;;2.55;;
7823;SDS011;3957;48.61947800;9.05303100;2022-07-06T05:21:19;4.03;;;1.92;;
7823;SDS011;3957;48.61947800;9.05303100;2022-07-06T05:22:40;2.00;;;1.73;;
7823;SDS011;3957;48.61947800;9.05303100;2022-07-06T05:24:00;3.38;;;2.25;;
7823;SDS011;3957;48.61947800;9.05303100;2022-07-06T05:25:21;3.03;;;2.08;;
7823;SDS011;3957;48.61947800;9.05303100;2022-07-06T05:26:42;3.65;;;2.10;;
7823;SDS011;3957;48.61947800;9.05303100;2022-07-06T05:28:04;2.60;;;2.10;;
7823;SDS011;3957;48.61947800;9.05303100;2022-07-06T05:29:25;2.58;;;1.98;;
7823;SDS011;3957;48.61947800;9.05303100;2022-07-06T05:30:46;6.75;;;2.38;;
7823;SDS011;3957;48.61947800;9.05303100;2022-07-06T05:32:07;3.50;;;2.07;;
7823;SDS011;3957;48.61947800;9.05303100;2022-07-06T05:33:28;2.88;;;1.90;;
7823;SDS011;3957;48.61947800;9.05303100;2022-07-06T05:34:50;3.65;;;2.35;;
7823;SDS011;3957;48.61947800;9.05303100;2022-07-06T05:36:13;4.43;;;2.72;;
7823;SDS011;3957;48.61947800;9.05303100;2022-07-06T05:37:35;3.78;;;2.33;;
7823;SDS011;3957;48.61947800;9.05303100;2022-07-06T05:38:56;3.67;;;2.45;;
7823;SDS011;3957;48.61947800;9.05303100;2022-07-06T05:40:17;5.05;;;2.47;;
7823;SDS011;3957;48.61947800;9.05303100;2022-07-06T05:41:38;3.92;;;2.20;;
7823;SDS011;3957;48.61947800;9.05303100;2022-07-06T05:42:59;3.45;;;2.47;;
7823;SDS011;3957;48.61947800;9.05303100;2022-07-06T05:44:20;3.30;;;1.90;;
7823;SDS011;3957;48.61947800;9.05303100;2022-07-06T05:45:41;3.83;;;2.28;;
7823;SDS011;3957;48.61947800;9.05303100;2022-07-06T05:47:03;3.97;;;2.35;;
7823;SDS011;3957;48.61947800;9.05303100;2022-07-06T05:48:42;3.03;;;2.45;;
7823;SDS011;3957;48.61947800;9.05303100;2022-07-06T05:50:22;3.65;;;2.45;;
7823;SDS011;3957;48.61947800;9.05303100;2022-07-06T05:51:47;4.22;;;2.00;;
7823;SDS011;3957;48.61947800;9.05303100;2022-07-06T05:53:08;2.38;;;2.00;;
7823;SDS011;3957;48.61947800;9.05303100;2022-07-06T05:54:28;2.17;;;1.98;;
7823;SDS011;3957;48.61947800;9.05303100;2022-07-06T05:55:49;3.60;;;2.30;;
7823;SDS011;3957;48.61947800;9.05303100;2022-07-06T05:57:10;2.13;;;1.80;;
7823;SDS011;3957;48.61947800;9.05303100;2022-07-06T05:58:31;3.05;;;2.08;;
7823;SDS011;3957;48.61947800;9.05303100;2022-07-06T05:59:53;2.97;;;2.50;;
7823;SDS011;3957;48.61947800;9.05303100;2022-07-06T06:01:14;3.58;;;2.25;;
7823;SDS011;3957;48.61947800;9.05303100;2022-07-06T06:02:41;4.40;;;2.40;;
7823;SDS011;3957;48.61947800;9.05303100;2022-07-06T06:04:04;3.17;;;2.50;;
7823;SDS011;3957;48.61947800;9.05303100;2022-07-06T06:05:25;3.20;;;2.40;;
7823;SDS011;3957;48.61947800;9.05303100;2022-07-06T06:06:51;4.45;;;2.00;;
7823;SDS011;3957;48.61947800;9.05303100;2022-07-06T06:08:12;2.80;;;1.95;;
7823;SDS011;3957;48.61947800;9.05303100;2022-07-06T06:09:33;2.70;;;1.60;;
7823;SDS011;3957;48.61947800;9.05303100;2022-07-06T06:10:54;2.42;;;1.98;;
7823;SDS011;3957;48.61947800;9.05303100;2022-07-06T06:12:17;2.67;;;2.00;;
7823;SDS011;3957;48.61947800;9.05303100;2022-07-06T06:13:38;1.83;;;1.58;;
7823;SDS011;3957;48.61947800;9.05303100;2022-07-06T06:14:58;3.17;;;2.10;;
7823;SDS011;3957;48.61947800;9.05303100;2022-07-06T06:16:19;3.10;;;1.75;;
7823;SDS011;3957;48.61947800;9.05303100;2022-07-06T06:17:41;2.13;;;1.85;;
7823;SDS011;3957;48.61947800;9.05303100;2022-07-06T06:19:01;3.50;;;1.80;;
7823;SDS011;3957;48.61947800;9.05303100;2022-07-06T06:20:22;2.53;;;1.67;;
7823;SDS011;3957;48.61947800;9.05303100;2022-07-06T06:21:43;2.87;;;1.80;;
7823;SDS011;3957;48.61947800;9.05303100;2022-07-06T06:23:04;1.85;;;1.55;;
7823;SDS011;3957;48.61947800;9.05303100;2022-07-06T06:24:25;3.30;;;1.70;;
7823;SDS011;3957;48.61947800;9.05303100;2022-07-06T06:25:48;2.63;;;1.73;;
7823;SDS011;3957;48.61947800;9.05303100;2022-07-06T06:27:09;2.17;;;1.60;;
7823;SDS011;3957;48.61947800;9.05303100;2022-07-06T06:28:30;2.83;;;1.58;;
7823;SDS011;3957;48.61947800;9.05303100;2022-07-06T06:29:50;2.88;;;1.77;;
7823;SDS011;3957;48.61947800;9.05303100;2022-07-06T06:31:11;1.92;;;1.30;;
7823;SDS011;3957;48.61947800;9.05303100;2022-07-06T06:32:32;1.95;;;1.52;;
7823;SDS011;3957;48.61947800;9.05303100;2022-07-06T06:33:53;1.90;;;1.52;;
7823;SDS011;3957;48.61947800;9.05303100;2022-07-06T06:35:13;2.40;;;1.55;;
7823;SDS011;3957;48.61947800;9.05303100;2022-07-06T06:36:34;2.95;;;1.60;;
7823;SDS011;3957;48.61947800;9.05303100;2022-07-06T06:37:55;1.48;;;1.35;;
7823;SDS011;3957;48.61947800;9.05303100;2022-07-06T06:39:16;1.60;;;1.23;;
7823;SDS011;3957;48.61947800;9.05303100;2022-07-06T06:40:37;1.67;;;1.10;;
7823;SDS011;3957;48.61947800;9.05303100;2022-07-06T06:41:57;3.07;;;1.60;;
7823;SDS011;3957;48.61947800;9.05303100;2022-07-06T06:43:18;3.33;;;1.65;;
7823;SDS011;3957;48.61947800;9.05303100;2022-07-06T06:45:11;2.38;;;1.60;;
7823;SDS011;3957;48.61947800;9.05303100;2022-07-06T06:46:32;3.00;;;1.60;;
7823;SDS011;3957;48.61947800;9.05303100;2022-07-06T06:47:52;2.30;;;1.60;;
7823;SDS011;3957;48.61947800;9.05303100;2022-07-06T06:49:13;2.72;;;1.63;;
7823;SDS011;3957;48.61947800;9.05303100;2022-07-06T06:50:34;3.05;;;1.90;;
7823;SDS011;3957;48.61947800;9.05303100;2022-07-06T06:51:55;1.70;;;1.50;;
7823;SDS011;3957;48.61947800;9.05303100;2022-07-06T06:53:15;1.75;;;1.50;;
7823;SDS011;3957;48.61947800;9.05303100;2022-07-06T06:54:36;2.70;;;1.45;;
7823;SDS011;3957;48.61947800;9.05303100;2022-07-06T06:55:57;2.15;;;1.60;;
7823;SDS011;3957;48.61947800;9.05303100;2022-07-06T06:57:18;1.85;;;1.75;;
7823;SDS011;3957;48.61947800;9.05303100;2022-07-06T06:58:38;2.75;;;2.00;;
7823;SDS011;3957;48.61947800;9.05303100;2022-07-06T06:59:59;2.13;;;1.92;;
7823;SDS011;3957;48.61947800;9.05303100;2022-07-06T07:01:20;3.38;;;1.83;;
7823;SDS011;3957;48.61947800;9.05303100;2022-07-06T07:02:41;4.07;;;2.10;;
7823;SDS011;3957;48.61947800;9.05303100;2022-07-06T07:04:02;3.70;;;2.05;;
7823;SDS011;3957;48.61947800;9.05303100;2022-07-06T07:05:22;2.92;;;1.90;;
7823;SDS011;3957;48.61947800;9.05303100;2022-07-06T07:06:43;2.92;;;1.70;;
7823;SDS011;3957;48.61947800;9.05303100;2022-07-06T07:08:04;2.30;;;1.83;;
7823;SDS011;3957;48.61947800;9.05303100;2022-07-06T07:09:26;2.90;;;1.90;;
7823;SDS011;3957;48.61947800;9.05303100;2022-07-06T07:10:46;3.90;;;1.90;;
7823;SDS011;3957;48.61947800;9.05303100;2022-07-06T07:12:07;2.63;;;1.75;;
7823;SDS011;3957;48.61947800;9.05303100;2022-07-06T07:13:28;3.00;;;1.80;;
7823;SDS011;3957;48.61947800;9.05303100;2022-07-06T07:14:49;2.03;;;1.45;;
7823;SDS011;3957;48.61947800;9.05303100;2022-07-06T07:16:09;3.47;;;1.70;;
7823;SDS011;3957;48.61947800;9.05303100;2022-07-06T07:17:30;1.70;;;1.40;;
7823;SDS011;3957;48.61947800;9.05303100;2022-07-06T07:18:51;2.45;;;1.80;;
7823;SDS011;3957;48.61947800;9.05303100;2022-07-06T07:20:12;2.15;;;1.70;;
7823;SDS011;3957;48.61947800;9.05303100;2022-07-06T07:21:33;2.47;;;1.80;;
7823;SDS011;3957;48.61947800;9.05303100;2022-07-06T07:22:54;1.70;;;1.58;;